Time,TemperatureF,DewpointF,PressureIn,WindDirection,WindDirectionDegrees,WindSpeedMPH,WindSpeedGustMPH,Humidity,HourlyPrecipIn,Conditions,Clouds,dailyrainin,SoftwareType,DateUTC
2013-01-27 00:00:00,14.4,8.8,29.44,NNW,344,0.0,0.0,78,0.00,,,0.00,VWS V14.00,2013-01-27 05:00:00,
2013-01-27 00:03:00,14.4,8.8,29.44,NNW,344,0.0,0.0,78,0.00,,,0.00,VWS V14.00,2013-01-27 05:03:00,
2013-01-27 00:08:00,14.4,8.8,29.44,NNW,344,0.0,0.0,78,0.00,,,0.00,VWS V14.00,2013-01-27 05:08:00,
2013-01-27 00:13:00,14.4,8.8,29.44,NNW,344,0.0,0.0,78,0.00,,,0.00,VWS V14.00,2013-01-27 05:13:00,
2013-01-27 00:18:00,14.0,8.4,29.44,NNW,344,0.0,0.0,78,0.00,,,0.00,VWS V14.00,2013-01-27 05:18:00,
2013-01-27 00:23:00,13.8,8.2,29.44,NNW,344,0.0,0.0,78,0.00,,,0.00,VWS V14.00,2013-01-27 05:23:00,
2013-01-27 00:28:00,14.0,8.7,29.44,NNW,344,0.0,0.0,79,0.00,,,0.00,VWS V14.00,2013-01-27 05:28:00,
2013-01-27 00:33:00,14.4,9.1,29.44,NNW,344,0.0,0.0,79,0.00,,,0.00,VWS V14.00,2013-01-27 05:33:00,
2013-01-27 00:38:00,14.9,10.1,29.44,NNW,344,0.0,0.0,81,0.00,,,0.00,VWS V14.00,2013-01-27 05:38:00,
2013-01-27 00:43:00,14.9,10.1,29.44,NNW,344,0.0,0.0,81,0.00,,,0.00,VWS V14.00,2013-01-27 05:43:00,
2013-01-27 00:48:00,14.9,10.1,29.44,NNW,344,0.0,0.0,81,0.00,,,0.00,VWS V14.00,2013-01-27 05:48:00,
2013-01-27 00:53:00,14.5,9.8,29.44,NNW,344,0.0,0.0,81,0.00,,,0.00,VWS V14.00,2013-01-27 05:53:00,
2013-01-27 00:58:00,14.5,10.1,29.44,NNW,344,0.0,0.0,82,0.00,,,0.00,VWS V14.00,2013-01-27 05:58:00,
2013-01-27 01:03:00,14.4,9.9,29.44,NNW,344,0.0,0.0,82,0.00,,,0.00,VWS V14.00,2013-01-27 06:03:00,
2013-01-27 01:08:00,14.4,9.9,29.44,NNW,344,0.0,0.0,82,0.00,,,0.00,VWS V14.00,2013-01-27 06:08:00,
2013-01-27 01:13:00,14.0,9.5,29.44,NNW,344,0.0,0.0,82,0.00,,,0.00,VWS V14.00,2013-01-27 06:13:00,
2013-01-27 01:18:00,13.6,9.2,29.44,NNW,344,0.0,0.0,82,0.00,,,0.00,VWS V14.00,2013-01-27 06:18:00,
2013-01-27 01:23:00,13.3,8.8,29.44,NNW,344,0.0,0.0,82,0.00,,,0.00,VWS V14.00,2013-01-27 06:23:00,
2013-01-27 01:28:00,13.5,9.0,29.44,NNW,344,0.0,0.0,82,0.00,,,0.00,VWS V14.00,2013-01-27 06:28:00,
2013-01-27 01:33:00,13.6,9.2,29.44,NNW,344,0.0,0.0,82,0.00,,,0.00,VWS V14.00,2013-01-27 06:33:00,
2013-01-27 01:38:00,13.5,9.0,29.44,NNW,344,0.0,0.0,82,0.00,,,0.00,VWS V14.00,2013-01-27 06:38:00,
2013-01-27 01:43:00,13.5,9.0,29.44,NNW,344,0.0,0.0,82,0.00,,,0.00,VWS V14.00,2013-01-27 06:43:00,
2013-01-27 01:48:00,13.3,8.8,29.44,NNW,344,0.0,0.0,82,0.00,,,0.00,VWS V14.00,2013-01-27 06:48:00,
2013-01-27 01:53:00,12.9,8.5,29.44,NNW,344,0.0,0.0,82,0.00,,,0.00,VWS V14.00,2013-01-27 06:53:00,
2013-01-27 01:58:00,12.7,8.3,29.44,NNW,344,0.0,0.0,82,0.00,,,0.00,VWS V14.00,2013-01-27 06:58:00,
2013-01-27 02:03:00,12.0,7.6,29.44,NNW,344,0.0,0.0,82,0.00,,,0.00,VWS V14.00,2013-01-27 07:03:00,
2013-01-27 02:08:00,12.0,7.6,29.44,NNW,344,0.0,0.0,82,0.00,,,0.00,VWS V14.00,2013-01-27 07:08:00,
2013-01-27 02:13:00,12.0,7.6,29.44,NNW,344,0.0,0.0,82,0.00,,,0.00,VWS V14.00,2013-01-27 07:13:00,
2013-01-27 02:18:00,11.8,7.4,29.44,NNW,344,0.0,0.0,82,0.00,,,0.00,VWS V14.00,2013-01-27 07:18:00,
2013-01-27 02:23:00,11.7,7.2,29.44,NNW,344,0.0,0.0,82,0.00,,,0.00,VWS V14.00,2013-01-27 07:23:00,
2013-01-27 02:28:00,11.5,7.1,29.44,NNW,344,0.0,0.0,82,0.00,,,0.00,VWS V14.00,2013-01-27 07:28:00,
2013-01-27 02:33:00,11.7,7.2,29.44,NNW,344,0.0,0.0,82,0.00,,,0.00,VWS V14.00,2013-01-27 07:33:00,
2013-01-27 02:38:00,12.0,7.6,29.44,NNW,344,0.0,0.0,82,0.00,,,0.00,VWS V14.00,2013-01-27 07:38:00,
2013-01-27 02:43:00,12.0,7.6,29.44,NNW,344,0.0,0.0,82,0.00,,,0.00,VWS V14.00,2013-01-27 07:43:00,
2013-01-27 02:48:00,11.8,7.4,29.44,NNW,344,0.0,0.0,82,0.00,,,0.00,VWS V14.00,2013-01-27 07:48:00,
2013-01-27 02:53:00,11.8,7.4,29.44,NNW,344,0.0,0.0,82,0.00,,,0.00,VWS V14.00,2013-01-27 07:53:00,
2013-01-27 02:58:00,11.8,7.4,29.44,NNW,344,0.0,0.0,82,0.00,,,0.00,VWS V14.00,2013-01-27 07:58:00,
2013-01-27 03:03:00,11.5,7.1,29.44,NNW,344,0.0,0.0,82,0.00,,,0.00,VWS V14.00,2013-01-27 08:03:00,
2013-01-27 03:08:00,11.1,6.7,29.47,NNW,344,0.0,0.0,82,0.00,,,0.00,VWS V14.00,2013-01-27 08:08:00,
2013-01-27 03:13:00,10.9,6.5,29.47,NNW,344,0.0,0.0,82,0.00,,,0.00,VWS V14.00,2013-01-27 08:13:00,
2013-01-27 03:18:00,10.4,6.0,29.47,NNW,344,0.0,0.0,82,0.00,,,0.00,VWS V14.00,2013-01-27 08:18:00,
2013-01-27 03:23:00,10.2,5.8,29.44,NNW,344,0.0,0.0,82,0.00,,,0.00,VWS V14.00,2013-01-27 08:23:00,
2013-01-27 03:28:00,10.2,5.8,29.44,NNW,344,0.0,0.0,82,0.00,,,0.00,VWS V14.00,2013-01-27 08:28:00,
2013-01-27 03:33:00,10.0,5.7,29.44,NNW,344,0.0,0.0,82,0.00,,,0.00,VWS V14.00,2013-01-27 08:33:00,
2013-01-27 03:38:00,9.7,5.3,29.44,NNW,344,0.0,0.0,82,0.00,,,0.00,VWS V14.00,2013-01-27 08:38:00,
2013-01-27 03:43:00,9.5,5.1,29.44,NNW,344,0.0,0.0,82,0.00,,,0.00,VWS V14.00,2013-01-27 08:43:00,
2013-01-27 03:48:00,9.7,5.3,29.44,NNW,344,0.0,0.0,82,0.00,,,0.00,VWS V14.00,2013-01-27 08:48:00,
2013-01-27 03:53:00,9.7,5.3,29.44,NNW,344,0.0,0.0,82,0.00,,,0.00,VWS V14.00,2013-01-27 08:53:00,
2013-01-27 03:58:00,9.5,5.1,29.44,NNW,344,0.0,0.0,82,0.00,,,0.00,VWS V14.00,2013-01-27 08:58:00,
2013-01-27 04:03:00,9.5,5.1,29.44,NNW,344,0.0,0.0,82,0.00,,,0.00,VWS V14.00,2013-01-27 09:03:00,
2013-01-27 04:08:00,9.5,5.1,29.44,NNW,344,0.0,0.0,82,0.00,,,0.00,VWS V14.00,2013-01-27 09:08:00,
2013-01-27 04:13:00,9.1,4.8,29.44,NNW,344,0.0,0.0,82,0.00,,,0.00,VWS V14.00,2013-01-27 09:13:00,
2013-01-27 04:18:00,9.3,4.9,29.44,NNW,344,0.0,0.0,82,0.00,,,0.00,VWS V14.00,2013-01-27 09:18:00,
2013-01-27 04:23:00,9.9,5.5,29.44,NNW,344,0.0,0.0,82,0.00,,,0.00,VWS V14.00,2013-01-27 09:23:00,
2013-01-27 04:28:00,9.3,4.9,29.44,NNW,344,0.0,0.0,82,0.00,,,0.00,VWS V14.00,2013-01-27 09:28:00,
2013-01-27 04:33:00,9.3,4.9,29.44,NNW,344,0.0,0.0,82,0.00,,,0.00,VWS V14.00,2013-01-27 09:33:00,
2013-01-27 04:38:00,9.3,4.9,29.44,NNW,344,0.0,0.0,82,0.00,,,0.00,VWS V14.00,2013-01-27 09:38:00,
2013-01-27 04:43:00,9.1,4.8,29.44,NNW,344,0.0,0.0,82,0.00,,,0.00,VWS V14.00,2013-01-27 09:43:00,
2013-01-27 04:48:00,9.1,4.8,29.44,NNW,344,0.0,0.0,82,0.00,,,0.00,VWS V14.00,2013-01-27 09:48:00,
2013-01-27 04:53:00,9.5,5.1,29.44,NNW,344,0.0,0.0,82,0.00,,,0.00,VWS V14.00,2013-01-27 09:53:00,
2013-01-27 04:58:00,9.3,4.9,29.44,NNW,344,0.0,0.0,82,0.00,,,0.00,VWS V14.00,2013-01-27 09:58:00,
2013-01-27 05:03:00,9.1,4.8,29.44,NNW,344,0.0,0.0,82,0.00,,,0.00,VWS V14.00,2013-01-27 10:03:00,
2013-01-27 05:08:00,9.1,4.8,29.44,NNW,344,0.0,0.0,82,0.00,,,0.00,VWS V14.00,2013-01-27 10:08:00,
2013-01-27 05:13:00,9.1,4.8,29.44,NNW,344,0.0,0.0,82,0.00,,,0.00,VWS V14.00,2013-01-27 10:13:00,
2013-01-27 05:18:00,8.8,4.4,29.44,NNW,344,0.0,0.0,82,0.00,,,0.00,VWS V14.00,2013-01-27 10:18:00,
2013-01-27 05:23:00,8.8,4.4,29.44,NNW,344,0.0,0.0,82,0.00,,,0.00,VWS V14.00,2013-01-27 10:23:00,
2013-01-27 05:28:00,9.0,4.6,29.44,NNW,344,0.0,0.0,82,0.00,,,0.00,VWS V14.00,2013-01-27 10:28:00,
2013-01-27 05:33:00,9.1,4.8,29.44,NNW,344,0.0,0.0,82,0.00,,,0.00,VWS V14.00,2013-01-27 10:33:00,
2013-01-27 05:38:00,9.3,4.9,29.44,NNW,344,0.0,0.0,82,0.00,,,0.00,VWS V14.00,2013-01-27 10:38:00,
2013-01-27 05:43:00,9.5,5.1,29.44,NNW,344,0.0,0.0,82,0.00,,,0.00,VWS V14.00,2013-01-27 10:43:00,
2013-01-27 05:48:00,9.5,5.1,29.44,NNW,344,0.0,0.0,82,0.00,,,0.00,VWS V14.00,2013-01-27 10:48:00,
2013-01-27 05:53:00,9.5,5.1,29.47,NNW,344,0.0,0.0,82,0.00,,,0.00,VWS V14.00,2013-01-27 10:53:00,
2013-01-27 05:58:00,9.5,5.1,29.47,NNW,344,0.0,0.0,82,0.00,,,0.00,VWS V14.00,2013-01-27 10:58:00,
2013-01-27 06:04:00,9.5,5.1,29.47,NNW,344,0.0,0.0,82,0.00,,,0.00,VWS V14.00,2013-01-27 11:04:00,
2013-01-27 06:09:00,9.7,5.3,29.44,NNW,344,0.0,0.0,82,0.00,,,0.00,VWS V14.00,2013-01-27 11:09:00,
2013-01-27 06:14:00,9.7,5.3,29.44,NNW,344,0.0,0.0,82,0.00,,,0.00,VWS V14.00,2013-01-27 11:14:00,
2013-01-27 06:19:00,9.9,5.5,29.44,NNW,344,0.0,0.0,82,0.00,,,0.00,VWS V14.00,2013-01-27 11:19:00,
2013-01-27 06:24:00,9.7,5.3,29.47,NNW,344,0.0,0.0,82,0.00,,,0.00,VWS V14.00,2013-01-27 11:24:00,
2013-01-27 06:29:00,9.5,5.1,29.47,NNW,344,0.0,0.0,82,0.00,,,0.00,VWS V14.00,2013-01-27 11:29:00,
2013-01-27 06:34:00,9.7,5.3,29.47,NNW,344,0.0,0.0,82,0.00,,,0.00,VWS V14.00,2013-01-27 11:34:00,
2013-01-27 06:39:00,9.5,5.1,29.47,NNW,344,0.0,0.0,82,0.00,,,0.00,VWS V14.00,2013-01-27 11:39:00,
2013-01-27 06:44:00,9.7,5.3,29.47,NNW,344,0.0,0.0,82,0.00,,,0.00,VWS V14.00,2013-01-27 11:44:00,
2013-01-27 06:49:00,9.9,5.5,29.47,NNW,344,0.0,0.0,82,0.00,,,0.00,VWS V14.00,2013-01-27 11:49:00,
2013-01-27 06:54:00,9.7,5.3,29.47,NNW,344,0.0,0.0,82,0.00,,,0.00,VWS V14.00,2013-01-27 11:54:00,
2013-01-27 06:59:00,9.5,5.1,29.47,NNW,344,0.0,0.0,82,0.00,,,0.00,VWS V14.00,2013-01-27 11:59:00,
2013-01-27 07:04:00,9.7,5.3,29.47,NNW,344,0.0,0.0,82,0.00,,,0.00,VWS V14.00,2013-01-27 12:04:00,
2013-01-27 07:09:00,9.5,5.1,29.44,NNW,344,0.0,0.0,82,0.00,,,0.00,VWS V14.00,2013-01-27 12:09:00,
2013-01-27 07:14:00,9.3,4.9,29.44,NNW,344,0.0,0.0,82,0.00,,,0.00,VWS V14.00,2013-01-27 12:14:00,
2013-01-27 07:19:00,9.3,4.9,29.44,NNW,344,0.0,0.0,82,0.00,,,0.00,VWS V14.00,2013-01-27 12:19:00,
2013-01-27 07:24:00,9.5,5.1,29.44,NNW,344,0.0,0.0,82,0.00,,,0.00,VWS V14.00,2013-01-27 12:24:00,
2013-01-27 07:29:00,9.1,4.8,29.44,NNW,344,0.0,0.0,82,0.00,,,0.00,VWS V14.00,2013-01-27 12:29:00,
2013-01-27 07:34:00,9.0,4.6,29.44,NNW,344,0.0,0.0,82,0.00,,,0.00,VWS V14.00,2013-01-27 12:34:00,
2013-01-27 07:39:00,8.8,4.4,29.44,NNW,344,0.0,0.0,82,0.00,,,0.00,VWS V14.00,2013-01-27 12:39:00,
2013-01-27 07:44:00,9.3,4.9,29.44,NNW,344,0.0,0.0,82,0.00,,,0.00,VWS V14.00,2013-01-27 12:44:00,
2013-01-27 07:49:00,9.0,4.6,29.44,NNW,344,0.0,0.0,82,0.00,,,0.00,VWS V14.00,2013-01-27 12:49:00,
2013-01-27 07:54:00,9.1,4.8,29.44,NNW,344,0.0,0.0,82,0.00,,,0.00,VWS V14.00,2013-01-27 12:54:00,
2013-01-27 07:59:00,8.6,4.2,29.44,NNW,344,0.0,0.0,82,0.00,,,0.00,VWS V14.00,2013-01-27 12:59:00,
2013-01-27 08:04:00,8.6,4.2,29.44,NNW,344,0.0,0.0,82,0.00,,,0.00,VWS V14.00,2013-01-27 13:04:00,
2013-01-27 08:09:00,8.6,4.2,29.44,NNW,344,0.0,0.0,82,0.00,,,0.00,VWS V14.00,2013-01-27 13:09:00,
2013-01-27 08:14:00,8.8,4.4,29.44,NNW,344,0.0,0.0,82,0.00,,,0.00,VWS V14.00,2013-01-27 13:14:00,
2013-01-27 08:19:00,9.9,5.5,29.44,NNW,344,0.0,0.0,82,0.00,,,0.00,VWS V14.00,2013-01-27 13:19:00,
2013-01-27 08:24:00,11.3,6.9,29.44,NNW,344,0.0,0.0,82,0.00,,,0.00,VWS V14.00,2013-01-27 13:24:00,
2013-01-27 08:29:00,11.8,7.4,29.44,NNW,344,0.0,0.0,82,0.00,,,0.00,VWS V14.00,2013-01-27 13:29:00,
2013-01-27 08:34:00,13.5,9.0,29.44,NNW,344,0.0,0.0,82,0.00,,,0.00,VWS V14.00,2013-01-27 13:34:00,
2013-01-27 08:39:00,14.5,12.4,29.47,NNW,344,0.0,0.0,91,0.00,,,0.00,VWS V14.00,2013-01-27 13:39:00,
2013-01-27 08:44:00,15.1,12.9,29.47,NNW,344,0.0,0.0,91,0.00,,,0.00,VWS V14.00,2013-01-27 13:44:00,
2013-01-27 08:49:00,15.6,13.5,29.47,NNW,344,0.0,0.0,91,0.00,,,0.00,VWS V14.00,2013-01-27 13:49:00,
2013-01-27 08:54:00,15.6,13.2,29.47,NNW,344,0.0,0.0,90,0.00,,,0.00,VWS V14.00,2013-01-27 13:54:00,
2013-01-27 08:59:00,15.8,13.4,29.47,NNW,344,0.0,0.0,90,0.00,,,0.00,VWS V14.00,2013-01-27 13:59:00,
2013-01-27 09:04:00,16.2,13.5,29.47,NNW,344,3.1,3.6,89,0.00,,,0.00,VWS V14.00,2013-01-27 14:04:00,
2013-01-27 09:09:00,16.5,13.9,29.47,NNW,344,0.0,4.0,89,0.00,,,0.00,VWS V14.00,2013-01-27 14:09:00,
2013-01-27 09:14:00,17.6,14.7,29.47,NNW,343,0.0,5.4,88,0.00,,,0.00,VWS V14.00,2013-01-27 14:14:00,
2013-01-27 09:19:00,18.5,15.3,29.44,SSW,211,3.1,7.6,87,0.00,,,0.00,VWS V14.00,2013-01-27 14:19:00,
2013-01-27 09:24:00,19.4,15.9,29.44,SSE,162,4.0,7.6,86,0.00,,,0.00,VWS V14.00,2013-01-27 14:24:00,
2013-01-27 09:29:00,19.9,15.9,29.44,SSW,194,5.4,7.6,84,0.00,,,0.00,VWS V14.00,2013-01-27 14:29:00,
2013-01-27 09:34:00,20.3,15.7,29.44,SE,140,0.0,5.4,82,0.00,,,0.00,VWS V14.00,2013-01-27 14:34:00,
2013-01-27 09:39:00,21.2,16.3,29.44,South,188,3.6,5.8,81,0.00,,,0.00,VWS V14.00,2013-01-27 14:39:00,
2013-01-27 09:44:00,21.6,15.5,29.44,SSW,194,6.3,7.6,77,0.00,,,0.00,VWS V14.00,2013-01-27 14:44:00,
2013-01-27 09:49:00,22.1,15.4,29.44,SSE,149,3.6,7.6,75,0.00,,,0.00,VWS V14.00,2013-01-27 14:49:00,
2013-01-27 09:54:00,22.6,15.3,29.44,SSW,199,4.9,7.6,73,0.00,,,0.00,VWS V14.00,2013-01-27 14:54:00,
2013-01-27 09:59:00,22.8,14.2,29.44,South,182,3.6,7.6,69,0.00,,,0.00,VWS V14.00,2013-01-27 14:59:00,
2013-01-27 10:04:00,23.9,15.2,29.44,SSE,166,3.1,4.0,69,0.00,,,0.00,VWS V14.00,2013-01-27 15:04:00,
2013-01-27 10:09:00,24.3,14.9,29.44,SSE,165,2.7,6.3,67,0.00,,,0.00,VWS V14.00,2013-01-27 15:09:00,
2013-01-27 10:14:00,24.8,14.7,29.44,SSE,162,4.5,6.3,65,0.00,,,0.00,VWS V14.00,2013-01-27 15:14:00,
2013-01-27 10:19:00,25.3,14.5,29.44,South,169,5.4,6.7,63,0.00,,,0.00,VWS V14.00,2013-01-27 15:19:00,
2013-01-27 10:24:00,26.1,14.8,29.44,SE,136,4.9,6.7,62,0.00,,,0.00,VWS V14.00,2013-01-27 15:24:00,
2013-01-27 10:29:00,27.0,14.2,29.44,South,179,4.0,8.1,58,0.00,,,0.00,VWS V14.00,2013-01-27 15:29:00,
2013-01-27 10:34:00,27.1,13.5,29.44,SSW,206,3.6,8.3,56,0.00,,,0.00,VWS V14.00,2013-01-27 15:34:00,
2013-01-27 10:39:00,27.3,12.9,29.44,SSW,192,10.1,12.8,54,0.00,,,0.00,VWS V14.00,2013-01-27 15:39:00,
2013-01-27 10:44:00,27.5,12.2,29.44,SSW,206,8.7,12.8,52,0.00,,,0.00,VWS V14.00,2013-01-27 15:44:00,
2013-01-27 10:49:00,28.4,12.6,29.44,SSE,147,4.0,12.8,51,0.00,,,0.00,VWS V14.00,2013-01-27 15:49:00,
2013-01-27 10:54:00,28.8,13.4,29.44,SE,146,2.7,12.8,52,0.00,,,0.00,VWS V14.00,2013-01-27 15:54:00,
2013-01-27 10:59:00,28.0,12.3,29.44,ESE,115,8.1,12.8,51,0.00,,,0.00,VWS V14.00,2013-01-27 15:59:00,
2013-01-27 11:04:00,27.5,11.8,29.44,SE,125,5.4,10.5,51,0.00,,,0.00,VWS V14.00,2013-01-27 16:04:00,
2013-01-27 11:09:00,27.3,11.6,29.44,SSW,198,5.8,10.5,51,0.00,,,0.00,VWS V14.00,2013-01-27 16:09:00,
2013-01-27 11:14:00,27.1,11.4,29.44,SSE,150,5.4,10.5,51,0.00,,,0.00,VWS V14.00,2013-01-27 16:14:00,
2013-01-27 11:19:00,27.0,11.3,29.47,SSE,168,8.1,13.2,51,0.00,,,0.00,VWS V14.00,2013-01-27 16:19:00,
2013-01-27 11:24:00,26.6,10.5,29.47,SE,145,11.0,13.2,50,0.00,,,0.00,VWS V14.00,2013-01-27 16:24:00,
2013-01-27 11:29:00,26.8,10.6,29.47,SE,140,7.6,13.2,50,0.00,,,0.00,VWS V14.00,2013-01-27 16:29:00,
2013-01-27 11:34:00,27.1,11.4,29.44,SE,132,6.3,8.7,51,0.00,,,0.00,VWS V14.00,2013-01-27 16:34:00,
2013-01-27 11:39:00,27.9,12.1,29.44,SSE,167,5.8,8.7,51,0.00,,,0.00,VWS V14.00,2013-01-27 16:39:00,
2013-01-27 11:44:00,27.9,12.1,29.44,SSE,166,5.4,8.7,51,0.00,,,0.00,VWS V14.00,2013-01-27 16:44:00,
2013-01-27 11:49:00,27.5,11.3,29.44,SSE,150,5.4,8.7,50,0.00,,,0.00,VWS V14.00,2013-01-27 16:49:00,
2013-01-27 11:54:00,27.3,11.1,29.44,SSE,160,3.6,8.7,50,0.00,,,0.00,VWS V14.00,2013-01-27 16:54:00,
2013-01-27 11:59:00,27.0,10.8,29.44,SE,146,6.7,10.1,50,0.00,,,0.00,VWS V14.00,2013-01-27 16:59:00,
2013-01-27 12:04:00,27.0,10.8,29.44,South,182,4.0,8.1,50,0.00,,,0.00,VWS V14.00,2013-01-27 17:04:00,
2013-01-27 12:09:00,27.0,10.8,29.44,SSE,162,5.4,8.1,50,0.00,,,0.00,VWS V14.00,2013-01-27 17:09:00,
2013-01-27 12:14:00,27.1,11.4,29.44,SSE,153,5.8,8.1,51,0.00,,,0.00,VWS V14.00,2013-01-27 17:14:00,
2013-01-27 12:19:00,27.1,11.0,29.44,South,170,4.9,8.1,50,0.00,,,0.00,VWS V14.00,2013-01-27 17:19:00,
2013-01-27 12:24:00,27.3,11.6,29.44,SSW,209,4.9,8.3,51,0.00,,,0.00,VWS V14.00,2013-01-27 17:24:00,
2013-01-27 12:29:00,27.3,11.6,29.44,SSE,160,7.6,8.3,51,0.00,,,0.00,VWS V14.00,2013-01-27 17:29:00,
2013-01-27 12:34:00,27.0,10.8,29.44,SSE,159,5.8,10.1,50,0.00,,,0.00,VWS V14.00,2013-01-27 17:34:00,
2013-01-27 12:39:00,26.8,10.6,29.44,SSE,167,3.6,10.1,50,0.00,,,0.00,VWS V14.00,2013-01-27 17:39:00,
2013-01-27 12:44:00,27.1,11.4,29.44,SSW,200,5.4,10.1,51,0.00,,,0.00,VWS V14.00,2013-01-27 17:44:00,
2013-01-27 12:49:00,27.1,11.4,29.44,SSE,149,7.6,10.1,51,0.00,,,0.00,VWS V14.00,2013-01-27 17:49:00,
2013-01-27 12:54:00,27.3,11.6,29.44,SSE,163,5.8,10.5,51,0.00,,,0.00,VWS V14.00,2013-01-27 17:54:00,
2013-01-27 12:59:00,27.3,11.6,29.44,South,170,5.4,10.5,51,0.00,,,0.00,VWS V14.00,2013-01-27 17:59:00,
2013-01-27 13:04:00,27.9,12.1,29.41,South,180,3.6,6.7,51,0.00,,,0.00,VWS V14.00,2013-01-27 18:04:00,
2013-01-27 13:09:00,28.4,13.0,29.41,South,190,0.0,6.7,52,0.00,,,0.00,VWS V14.00,2013-01-27 18:09:00,
2013-01-27 13:14:00,29.1,13.7,29.41,SSW,209,2.7,6.7,52,0.00,,,0.00,VWS V14.00,2013-01-27 18:14:00,
2013-01-27 13:20:00,28.4,12.6,29.41,WSW,246,5.8,8.7,51,0.00,,,0.00,VWS V14.00,2013-01-27 18:20:00,
2013-01-27 13:25:00,28.8,12.9,29.41,South,186,8.1,8.7,51,0.00,,,0.00,VWS V14.00,2013-01-27 18:25:00,
2013-01-27 13:30:00,28.6,12.3,29.41,South,185,3.6,8.7,50,0.00,,,0.00,VWS V14.00,2013-01-27 18:30:00,
2013-01-27 13:35:00,29.5,13.6,29.41,SE,144,3.1,6.3,51,0.00,,,0.00,VWS V14.00,2013-01-27 18:35:00,
2013-01-27 13:40:00,29.1,12.8,29.41,SW,220,2.7,8.1,50,0.00,,,0.00,VWS V14.00,2013-01-27 18:40:00,
2013-01-27 13:45:00,29.7,13.8,29.41,SE,144,6.3,8.1,51,0.00,,,0.00,VWS V14.00,2013-01-27 18:45:00,
2013-01-27 13:50:00,30.0,13.6,29.38,South,179,4.0,8.1,50,0.00,,,0.00,VWS V14.00,2013-01-27 18:50:00,
2013-01-27 13:55:00,29.7,13.3,29.38,SSW,212,5.8,8.1,50,0.00,,,0.00,VWS V14.00,2013-01-27 18:55:00,
2013-01-27 14:00:00,30.0,13.6,29.38,SSE,159,5.8,8.1,50,0.00,,,0.00,VWS V14.00,2013-01-27 19:00:00,
2013-01-27 14:05:00,30.7,14.3,29.38,South,172,5.4,7.6,50,0.00,,,0.00,VWS V14.00,2013-01-27 19:05:00,
2013-01-27 14:10:00,30.4,13.5,29.38,SSE,156,3.1,8.1,49,0.00,,,0.00,VWS V14.00,2013-01-27 19:10:00,
2013-01-27 14:15:00,30.0,13.2,29.38,SW,225,4.9,8.1,49,0.00,,,0.00,VWS V14.00,2013-01-27 19:15:00,
2013-01-27 14:20:00,30.2,13.8,29.38,SSE,164,5.4,8.1,50,0.00,,,0.00,VWS V14.00,2013-01-27 19:20:00,
2013-01-27 14:25:00,30.2,13.4,29.38,SSE,163,6.3,8.7,49,0.00,,,0.00,VWS V14.00,2013-01-27 19:25:00,
2013-01-27 14:30:00,30.2,13.4,29.38,ESE,120,4.9,8.7,49,0.00,,,0.00,VWS V14.00,2013-01-27 19:30:00,
2013-01-27 14:35:00,30.2,13.8,29.35,SSW,192,3.6,8.3,50,0.00,,,0.00,VWS V14.00,2013-01-27 19:35:00,
2013-01-27 14:40:00,30.4,14.0,29.35,SE,136,4.0,8.3,50,0.00,,,0.00,VWS V14.00,2013-01-27 19:40:00,
2013-01-27 14:45:00,29.8,13.0,29.35,SSE,157,3.6,8.3,49,0.00,,,0.00,VWS V14.00,2013-01-27 19:45:00,
2013-01-27 14:50:00,29.7,13.3,29.35,SSE,154,3.1,8.3,50,0.00,,,0.00,VWS V14.00,2013-01-27 19:50:00,
2013-01-27 14:55:00,29.7,13.3,29.35,ESE,109,5.4,8.3,50,0.00,,,0.00,VWS V14.00,2013-01-27 19:55:00,
2013-01-27 15:00:00,29.5,13.1,29.35,South,174,4.9,6.3,50,0.00,,,0.00,VWS V14.00,2013-01-27 20:00:00,
2013-01-27 15:05:00,29.5,13.6,29.35,SE,140,2.7,7.6,51,0.00,,,0.00,VWS V14.00,2013-01-27 20:05:00,
2013-01-27 15:10:00,30.0,14.1,29.35,ESE,104,4.0,8.3,51,0.00,,,0.00,VWS V14.00,2013-01-27 20:10:00,
2013-01-27 15:15:00,29.8,13.9,29.35,SE,132,5.4,8.3,51,0.00,,,0.00,VWS V14.00,2013-01-27 20:15:00,
2013-01-27 15:20:00,29.5,13.6,29.35,SE,131,6.3,8.3,51,0.00,,,0.00,VWS V14.00,2013-01-27 20:20:00,
2013-01-27 15:25:00,29.5,13.6,29.35,SSE,147,6.3,8.3,51,0.00,,,0.00,VWS V14.00,2013-01-27 20:25:00,
2013-01-27 15:30:00,29.3,13.4,29.35,SSE,158,3.1,3.1,51,0.00,,,0.00,VWS V14.00,2013-01-27 20:30:00,
2013-01-27 15:35:00,29.3,13.4,29.32,SE,137,5.8,6.3,51,0.00,,,0.00,VWS V14.00,2013-01-27 20:35:00,
2013-01-27 15:40:00,28.9,13.1,29.32,SSE,164,4.0,6.3,51,0.00,,,0.00,VWS V14.00,2013-01-27 20:40:00,
2013-01-27 15:45:00,29.1,13.3,29.32,SE,136,5.8,8.3,51,0.00,,,0.00,VWS V14.00,2013-01-27 20:45:00,
2013-01-27 15:50:00,28.9,13.1,29.32,SSE,156,3.6,8.3,51,0.00,,,0.00,VWS V14.00,2013-01-27 20:50:00,
2013-01-27 15:55:00,29.3,13.9,29.32,SE,127,3.6,8.3,52,0.00,,,0.00,VWS V14.00,2013-01-27 20:55:00,
2013-01-27 16:00:00,29.1,13.3,29.32,SSE,166,4.9,4.9,51,0.00,,,0.00,VWS V14.00,2013-01-27 21:00:00,
2013-01-27 16:05:00,28.8,12.9,29.32,SE,138,3.1,5.8,51,0.00,,,0.00,VWS V14.00,2013-01-27 21:05:00,
2013-01-27 16:10:00,28.6,13.2,29.32,South,178,4.0,6.3,52,0.00,,,0.00,VWS V14.00,2013-01-27 21:10:00,
2013-01-27 16:15:00,28.4,13.0,29.32,SE,143,5.4,6.3,52,0.00,,,0.00,VWS V14.00,2013-01-27 21:15:00,
2013-01-27 16:20:00,28.4,13.0,29.32,SE,145,6.3,7.6,52,0.00,,,0.00,VWS V14.00,2013-01-27 21:20:00,
2013-01-27 16:25:00,28.2,12.9,29.32,SE,131,5.4,7.6,52,0.00,,,0.00,VWS V14.00,2013-01-27 21:25:00,
2013-01-27 16:30:00,28.0,13.1,29.32,SSE,149,4.0,5.4,53,0.00,,,0.00,VWS V14.00,2013-01-27 21:30:00,
2013-01-27 16:35:00,27.9,13.0,29.32,SSE,153,5.8,8.1,53,0.00,,,0.00,VWS V14.00,2013-01-27 21:35:00,
2013-01-27 16:40:00,27.9,13.0,29.32,South,188,6.7,8.1,53,0.00,,,0.00,VWS V14.00,2013-01-27 21:40:00,
2013-01-27 16:45:00,27.7,13.2,29.32,SE,140,2.7,8.3,54,0.00,,,0.00,VWS V14.00,2013-01-27 21:45:00,
2013-01-27 16:50:00,27.5,13.1,29.32,SE,141,5.8,8.3,54,0.00,,,0.00,VWS V14.00,2013-01-27 21:50:00,
2013-01-27 16:55:00,27.1,12.7,29.32,ESE,116,5.4,8.3,54,0.00,,,0.00,VWS V14.00,2013-01-27 21:55:00,
2013-01-27 17:00:00,27.1,13.1,29.32,SE,144,3.1,5.8,55,0.00,,,0.00,VWS V14.00,2013-01-27 22:00:00,
2013-01-27 17:05:00,27.0,13.4,29.32,ESE,120,4.9,6.3,56,0.00,,,0.00,VWS V14.00,2013-01-27 22:05:00,
2013-01-27 17:10:00,27.0,13.4,29.32,South,182,2.7,6.3,56,0.00,,,0.00,VWS V14.00,2013-01-27 22:10:00,
2013-01-27 17:15:00,26.8,13.6,29.32,ESE,118,3.6,6.3,57,0.00,,,0.00,VWS V14.00,2013-01-27 22:15:00,
2013-01-27 17:20:00,26.8,13.6,29.32,SE,132,3.6,6.3,57,0.00,,,0.00,VWS V14.00,2013-01-27 22:20:00,
2013-01-27 17:25:00,26.4,13.7,29.32,SE,133,3.1,8.3,58,0.00,,,0.00,VWS V14.00,2013-01-27 22:25:00,
2013-01-27 17:30:00,26.4,14.1,29.32,SSE,147,6.3,8.7,59,0.00,,,0.00,VWS V14.00,2013-01-27 22:30:00,
2013-01-27 17:35:00,26.2,14.3,29.32,South,179,4.0,8.7,60,0.00,,,0.00,VWS V14.00,2013-01-27 22:35:00,
2013-01-27 17:40:00,26.1,14.5,29.32,SE,129,5.4,8.7,61,0.00,,,0.00,VWS V14.00,2013-01-27 22:40:00,
2013-01-27 17:45:00,26.1,14.8,29.32,SE,125,5.4,8.7,62,0.00,,,0.00,VWS V14.00,2013-01-27 22:45:00,
2013-01-27 17:50:00,25.9,15.0,29.35,SE,130,2.7,8.7,63,0.00,,,0.00,VWS V14.00,2013-01-27 22:50:00,
2013-01-27 17:55:00,25.7,15.2,29.35,SSE,168,6.3,8.7,64,0.00,,,0.00,VWS V14.00,2013-01-27 22:55:00,
2013-01-27 18:00:00,25.7,15.9,29.35,SSE,150,5.4,5.4,66,0.00,,,0.00,VWS V14.00,2013-01-27 23:00:00,
2013-01-27 18:05:00,25.5,16.1,29.35,SE,135,3.1,5.4,67,0.00,,,0.00,VWS V14.00,2013-01-27 23:05:00,
2013-01-27 18:10:00,25.3,16.3,29.35,SE,140,8.1,8.1,68,0.00,,,0.00,VWS V14.00,2013-01-27 23:10:00,
2013-01-27 18:15:00,25.2,17.1,29.35,SSE,154,3.6,8.7,71,0.00,,,0.00,VWS V14.00,2013-01-27 23:15:00,
2013-01-27 18:20:00,25.0,17.2,29.35,SSE,157,4.0,8.7,72,0.00,,,0.00,VWS V14.00,2013-01-27 23:20:00,
2013-01-27 18:25:00,24.8,17.7,29.35,South,175,2.2,8.7,74,0.00,,,0.00,VWS V14.00,2013-01-27 23:25:00,
2013-01-27 18:30:00,24.6,18.1,29.35,SE,145,3.6,6.3,76,0.00,,,0.00,VWS V14.00,2013-01-27 23:30:00,
2013-01-27 18:35:00,24.4,18.3,29.32,SSE,149,3.6,7.6,77,0.00,,,0.00,VWS V14.00,2013-01-27 23:35:00,
2013-01-27 18:40:00,24.4,18.9,29.32,South,177,4.9,8.1,79,0.00,,,0.00,VWS V14.00,2013-01-27 23:40:00,
2013-01-27 18:45:00,24.3,18.7,29.32,SE,142,5.4,8.1,79,0.00,,,0.00,VWS V14.00,2013-01-27 23:45:00,
2013-01-27 18:50:00,24.1,18.8,29.32,SE,126,4.0,8.1,80,0.00,,,0.00,VWS V14.00,2013-01-27 23:50:00,
2013-01-27 18:55:00,24.1,18.8,29.32,SSE,167,5.8,8.1,80,0.00,,,0.00,VWS V14.00,2013-01-27 23:55:00,
2013-01-27 19:00:00,24.1,19.1,29.32,SE,125,4.9,4.9,81,0.00,,,0.00,VWS V14.00,2013-01-28 00:00:00,
2013-01-27 19:05:00,23.9,19.2,29.32,South,179,4.0,6.3,82,0.00,,,0.00,VWS V14.00,2013-01-28 00:05:00,
2013-01-27 19:10:00,23.9,19.5,29.32,South,178,3.1,7.6,83,0.00,,,0.00,VWS V14.00,2013-01-28 00:10:00,
2013-01-27 19:15:00,23.9,19.8,29.32,South,190,6.3,7.6,84,0.00,,,0.00,VWS V14.00,2013-01-28 00:15:00,
2013-01-27 19:20:00,23.7,19.6,29.32,ESE,122,5.4,7.6,84,0.00,,,0.00,VWS V14.00,2013-01-28 00:20:00,
2013-01-27 19:25:00,23.7,19.9,29.32,ESE,110,5.8,8.7,85,0.00,,,0.00,VWS V14.00,2013-01-28 00:25:00,
2013-01-27 19:31:00,23.7,19.9,29.32,SE,141,0.0,2.7,85,0.00,,,0.00,VWS V14.00,2013-01-28 00:31:00,
2013-01-27 19:36:00,23.7,19.9,29.32,ESE,109,4.9,6.3,85,0.00,,,0.00,VWS V14.00,2013-01-28 00:36:00,
2013-01-27 19:41:00,23.9,20.1,29.32,ESE,118,4.0,6.3,85,0.00,,,0.00,VWS V14.00,2013-01-28 00:41:00,
2013-01-27 19:46:00,23.9,20.1,29.32,SE,146,4.0,7.2,85,0.00,,,0.00,VWS V14.00,2013-01-28 00:46:00,
2013-01-27 19:51:00,23.7,20.1,29.29,SE,129,4.9,8.3,86,0.00,,,0.00,VWS V14.00,2013-01-28 00:51:00,
2013-01-27 19:56:00,23.7,20.1,29.29,ESE,122,4.5,8.7,86,0.00,,,0.00,VWS V14.00,2013-01-28 00:56:00,
2013-01-27 20:01:00,23.9,20.6,29.29,SSE,151,8.1,8.1,87,0.00,,,0.00,VWS V14.00,2013-01-28 01:01:00,
2013-01-27 20:06:00,23.7,20.4,29.29,SSE,166,11.0,11.0,87,0.00,,,0.00,VWS V14.00,2013-01-28 01:06:00,
2013-01-27 20:11:00,23.9,20.9,29.29,ESE,116,6.3,11.0,88,0.00,,,0.00,VWS V14.00,2013-01-28 01:11:00,
2013-01-27 20:16:00,23.9,20.9,29.29,SE,135,3.1,11.0,88,0.00,,,0.00,VWS V14.00,2013-01-28 01:16:00,
2013-01-27 20:21:00,23.9,20.9,29.29,SE,127,5.4,11.0,88,0.00,,,0.00,VWS V14.00,2013-01-28 01:21:00,
2013-01-27 20:26:00,23.9,21.1,29.29,SE,133,4.0,11.0,89,0.00,,,0.00,VWS V14.00,2013-01-28 01:26:00,
2013-01-27 20:31:00,23.9,21.1,29.29,East,95,5.8,7.6,89,0.00,,,0.00,VWS V14.00,2013-01-28 01:31:00,
2013-01-27 20:36:00,23.9,21.4,29.23,ENE,62,5.8,8.3,90,0.00,,,0.00,VWS V14.00,2013-01-28 01:36:00,
2013-01-27 20:41:00,24.1,21.8,29.23,ESE,111,4.0,8.3,91,0.00,,,0.00,VWS V14.00,2013-01-28 01:41:00,
2013-01-27 20:46:00,24.1,21.8,29.23,SE,138,4.9,8.7,91,0.00,,,0.00,VWS V14.00,2013-01-28 01:46:00,
2013-01-27 20:51:00,24.3,22.0,29.23,SE,129,8.1,8.7,91,0.00,,,0.00,VWS V14.00,2013-01-28 01:51:00,
2013-01-27 20:56:00,24.3,22.0,29.23,ESE,122,7.6,8.7,91,0.00,,,0.00,VWS V14.00,2013-01-28 01:56:00,
2013-01-27 21:01:00,24.4,22.2,29.23,South,184,6.3,8.3,91,0.00,,,0.00,VWS V14.00,2013-01-28 02:01:00,
2013-01-27 21:06:00,24.4,22.5,29.23,ESE,117,4.5,8.7,92,0.00,,,0.00,VWS V14.00,2013-01-28 02:06:00,
2013-01-27 21:11:00,24.4,22.5,29.23,SE,128,11.0,11.0,92,0.00,,,0.00,VWS V14.00,2013-01-28 02:11:00,
2013-01-27 21:16:00,24.6,22.6,29.23,ESE,105,13.2,13.2,92,0.00,,,0.00,VWS V14.00,2013-01-28 02:16:00,
2013-01-27 21:21:00,24.8,23.1,29.23,South,177,5.4,13.2,93,0.00,,,0.00,VWS V14.00,2013-01-28 02:21:00,
2013-01-27 21:26:00,24.8,23.1,29.23,South,178,5.8,13.2,93,0.00,,,0.00,VWS V14.00,2013-01-28 02:26:00,
2013-01-27 21:31:00,25.0,23.2,29.23,South,171,7.6,8.7,93,0.00,,,0.00,VWS V14.00,2013-01-28 02:31:00,
2013-01-27 21:36:00,25.0,23.2,29.21,SE,130,11.0,11.0,93,0.00,,,0.00,VWS V14.00,2013-01-28 02:36:00,
2013-01-27 21:41:00,25.2,23.4,29.21,SSE,156,6.3,11.0,93,0.00,,,0.00,VWS V14.00,2013-01-28 02:41:00,
2013-01-27 21:46:00,25.3,23.9,29.21,SSE,149,4.9,12.3,94,0.00,,,0.00,VWS V14.00,2013-01-28 02:46:00,
2013-01-27 21:51:00,25.3,23.9,29.23,SE,146,3.1,12.3,94,0.00,,,0.00,VWS V14.00,2013-01-28 02:51:00,
2013-01-27 21:56:00,25.5,24.0,29.23,SSW,203,6.3,12.3,94,0.00,,,0.00,VWS V14.00,2013-01-28 02:56:00,
2013-01-27 22:01:00,25.3,23.9,29.23,SE,146,5.8,8.3,94,0.00,,,0.00,VWS V14.00,2013-01-28 03:01:00,
2013-01-27 22:06:00,25.5,24.0,29.21,ESE,112,6.3,8.7,94,0.00,,,0.00,VWS V14.00,2013-01-28 03:06:00,
2013-01-27 22:11:00,25.7,24.5,29.21,SE,145,8.1,10.5,95,0.00,,,0.00,VWS V14.00,2013-01-28 03:11:00,
2013-01-27 22:16:00,25.9,24.9,29.21,SSE,164,7.6,10.5,96,0.00,,,0.00,VWS V14.00,2013-01-28 03:16:00,
2013-01-27 22:21:00,26.2,25.3,29.18,ESE,123,10.1,12.3,96,0.00,,,0.00,VWS V14.00,2013-01-28 03:21:00,
2013-01-27 22:26:00,26.4,25.7,29.18,SE,146,8.7,15.0,97,0.00,,,0.00,VWS V14.00,2013-01-28 03:26:00,
2013-01-27 22:31:00,26.8,25.8,29.18,SE,131,4.0,8.1,96,0.00,,,0.00,VWS V14.00,2013-01-28 03:31:00,
2013-01-27 22:36:00,26.8,25.8,29.18,SE,143,10.5,13.2,96,0.00,,,0.00,VWS V14.00,2013-01-28 03:36:00,
2013-01-27 22:41:00,27.0,26.0,29.18,SE,144,8.7,13.2,96,0.00,,,0.00,VWS V14.00,2013-01-28 03:41:00,
2013-01-27 22:46:00,27.1,26.1,29.18,SSE,149,8.3,13.2,96,0.00,,,0.00,VWS V14.00,2013-01-28 03:46:00,
2013-01-27 22:51:00,27.3,26.3,29.15,South,169,8.7,13.2,96,0.00,,,0.00,VWS V14.00,2013-01-28 03:51:00,
2013-01-27 22:56:00,27.7,26.7,29.15,South,175,8.3,13.2,96,0.00,,,0.00,VWS V14.00,2013-01-28 03:56:00,
2013-01-27 23:01:00,27.5,26.5,29.15,SSE,147,10.5,12.8,96,0.00,,,0.00,VWS V14.00,2013-01-28 04:01:00,
2013-01-27 23:06:00,27.7,26.7,29.15,ESE,104,5.4,15.4,96,0.00,,,0.00,VWS V14.00,2013-01-28 04:06:00,
2013-01-27 23:11:00,27.9,27.1,29.15,SE,141,6.3,15.4,97,0.00,,,0.00,VWS V14.00,2013-01-28 04:11:00,
2013-01-27 23:16:00,28.0,27.3,29.15,SSW,200,12.3,15.4,97,0.00,,,0.00,VWS V14.00,2013-01-28 04:16:00,
2013-01-27 23:21:00,28.2,27.5,29.12,SSE,163,5.8,15.4,97,0.00,,,0.00,VWS V14.00,2013-01-28 04:21:00,
2013-01-27 23:26:00,28.4,27.7,29.12,SSE,150,3.1,15.4,97,0.00,,,0.00,VWS V14.00,2013-01-28 04:26:00,
2013-01-27 23:31:00,28.6,27.8,29.12,SE,136,0.0,0.0,97,0.00,,,0.00,VWS V14.00,2013-01-28 04:31:00,
2013-01-27 23:36:00,28.6,27.6,29.15,SSW,203,0.0,0.0,96,0.00,,,0.00,VWS V14.00,2013-01-28 04:36:00,
2013-01-27 23:41:00,28.8,27.8,29.15,SSW,203,0.0,0.0,96,0.00,,,0.00,VWS V14.00,2013-01-28 04:41:00,
2013-01-27 23:46:00,28.8,27.5,29.15,SSW,203,0.0,0.0,95,0.00,,,0.00,VWS V14.00,2013-01-28 04:46:00,
2013-01-27 23:51:00,28.9,27.7,29.15,SSW,203,0.0,0.0,95,0.00,,,0.00,VWS V14.00,2013-01-28 04:51:00,
2013-01-27 23:56:00,29.1,27.9,29.15,SSW,203,0.0,0.0,95,0.00,,,0.00,VWS V14.00,2013-01-28 04:56:00,